createdAt,value
2022-09-29T00:02:51.020Z,1.90
2022-09-29T00:05:55.621Z,1.12
2022-09-29T00:08:58.645Z,3.50
2022-09-29T00:12:01.530Z,1.25
2022-09-29T00:15:04.286Z,0.80
2022-09-29T00:18:15.745Z,0.80
2022-09-29T00:21:21.536Z,1.00
2022-09-29T00:24:24.365Z,1.50
2022-09-29T00:27:26.817Z,0.85
2022-09-29T00:30:29.599Z,1.40
2022-09-29T00:33:33.268Z,1.23
2022-09-29T00:36:36.048Z,2.08
2022-09-29T00:39:38.540Z,0.90
2022-09-29T00:42:41.297Z,1.70
2022-09-29T00:45:43.802Z,0.80
2022-09-29T00:48:47.676Z,0.82
2022-09-29T00:51:57.329Z,0.90
2022-09-29T00:55:07.825Z,1.00
2022-09-29T00:58:22.987Z,1.30
2022-09-29T01:01:29.210Z,2.50
2022-09-29T01:04:31.760Z,1.10
2022-09-29T01:07:34.524Z,0.80
2022-09-29T01:10:38.028Z,0.88
2022-09-29T01:13:42.116Z,1.85
2022-09-29T01:16:44.713Z,0.90
2022-09-29T01:20:23.043Z,2.00
2022-09-29T01:23:46.003Z,1.10
2022-09-29T01:27:11.885Z,1.20
2022-09-29T01:30:21.878Z,3.90
2022-09-29T01:33:36.559Z,1.00
2022-09-29T01:37:14.644Z,1.30
2022-09-29T01:40:42.986Z,1.70
2022-09-29T01:43:59.453Z,0.95
2022-09-29T01:47:21.884Z,1.12
2022-09-29T01:50:28.589Z,1.80
2022-09-29T01:53:37.927Z,1.75
2022-09-29T01:56:45.290Z,2.95
2022-09-29T02:00:12.669Z,1.20
2022-09-29T02:03:28.540Z,1.40
2022-09-29T02:06:38.049Z,1.77
2022-09-29T02:09:46.143Z,1.30
2022-09-29T02:12:50.899Z,2.15
2022-09-29T02:15:55.905Z,1.50
2022-09-29T02:19:04.581Z,3.37
2022-09-29T02:22:07.013Z,2.37
2022-09-29T02:25:12.514Z,1.85
2022-09-29T02:28:15.618Z,1.55
2022-09-29T02:31:19.243Z,1.40
2022-09-29T02:34:22.344Z,1.35
2022-09-29T02:37:54.919Z,1.10
2022-09-29T02:41:08.268Z,1.73
2022-09-29T02:44:16.882Z,2.30
2022-09-29T02:47:28.181Z,1.92
2022-09-29T02:50:43.090Z,1.20
2022-09-29T02:54:14.084Z,1.30
2022-09-29T02:57:27.448Z,1.50
2022-09-29T03:00:30.406Z,1.70
2022-09-29T03:03:33.691Z,2.05
2022-09-29T03:06:36.336Z,1.70
2022-09-29T03:09:39.602Z,1.50
2022-09-29T03:12:42.226Z,1.10
2022-09-29T03:15:45.020Z,1.90
2022-09-29T03:18:47.679Z,3.83
2022-09-29T03:21:50.833Z,2.03
2022-09-29T03:24:53.304Z,1.23
2022-09-29T03:27:56.033Z,1.45
2022-09-29T03:31:05.274Z,2.85
2022-09-29T03:34:08.056Z,2.10
2022-09-29T03:37:10.509Z,1.92
2022-09-29T03:40:13.459Z,1.37
2022-09-29T03:43:16.031Z,1.75
2022-09-29T03:46:18.870Z,1.62
2022-09-29T03:49:21.508Z,2.42
2022-09-29T03:52:24.358Z,1.65
2022-09-29T03:55:26.776Z,1.90
2022-09-29T03:58:29.471Z,3.75
2022-09-29T04:01:32.510Z,1.50
2022-09-29T04:04:35.285Z,1.55
2022-09-29T04:07:37.745Z,1.77
2022-09-29T04:10:42.630Z,2.60
2022-09-29T04:13:45.074Z,2.50
2022-09-29T04:16:48.067Z,1.67
2022-09-29T04:19:50.591Z,1.90
2022-09-29T04:22:53.312Z,1.40
2022-09-29T04:25:56.366Z,2.73
2022-09-29T04:28:59.093Z,2.30
2022-09-29T04:32:01.839Z,2.35
2022-09-29T04:35:05.293Z,2.20
2022-09-29T04:38:08.596Z,1.60
2022-09-29T04:41:11.312Z,2.30
2022-09-29T04:44:13.892Z,1.42
2022-09-29T04:47:17.189Z,2.00
2022-09-29T04:50:19.576Z,2.87
2022-09-29T04:53:22.249Z,1.05
2022-09-29T04:56:24.936Z,3.27
2022-09-29T04:59:28.327Z,3.78
2022-09-29T05:02:30.843Z,4.37
2022-09-29T05:05:33.636Z,4.55
2022-09-29T05:08:36.371Z,1.58
2022-09-29T05:11:39.074Z,2.10
2022-09-29T05:14:41.529Z,1.65
2022-09-29T05:17:44.455Z,4.47
2022-09-29T05:21:00.456Z,3.08
2022-09-29T05:24:09.648Z,1.55
2022-09-29T05:27:12.112Z,2.03
2022-09-29T05:30:14.958Z,2.78
2022-09-29T05:33:17.392Z,3.08
2022-09-29T05:36:20.149Z,2.03
2022-09-29T05:39:22.772Z,2.00
2022-09-29T05:42:25.965Z,5.03
2022-09-29T05:45:28.512Z,3.45
2022-09-29T05:48:32.474Z,2.92
2022-09-29T05:51:35.223Z,3.28
2022-09-29T05:54:37.905Z,3.05
2022-09-29T05:57:40.384Z,2.77
2022-09-29T06:00:43.431Z,3.40
2022-09-29T06:03:46.485Z,5.53
2022-09-29T06:06:48.986Z,3.20
2022-09-29T06:09:51.873Z,2.47
2022-09-29T06:12:54.548Z,3.00
2022-09-29T06:15:59.359Z,2.70
2022-09-29T06:19:02.820Z,3.35
2022-09-29T06:22:05.930Z,2.60
2022-09-29T06:25:08.668Z,2.45
2022-09-29T06:28:11.714Z,2.00
2022-09-29T06:31:16.833Z,2.60
2022-09-29T06:34:19.681Z,2.78
2022-09-29T06:37:39.525Z,2.50
2022-09-29T06:40:42.296Z,2.40
2022-09-29T06:43:44.740Z,3.40
2022-09-29T06:46:48.195Z,3.15
2022-09-29T06:50:08.511Z,2.83
2022-09-29T06:53:12.028Z,2.22
2022-09-29T06:56:14.595Z,6.70
2022-09-29T06:59:37.816Z,2.40
2022-09-29T07:02:45.892Z,3.10
2022-09-29T07:06:15.278Z,1.30
2022-09-29T07:09:16.758Z,2.10
2022-09-29T07:12:20.344Z,3.45
2022-09-29T07:15:22.881Z,1.63
2022-09-29T07:18:25.612Z,1.27
2022-09-29T07:21:28.140Z,3.00
2022-09-29T07:24:30.845Z,1.45
2022-09-29T07:27:34.371Z,3.42
2022-09-29T07:30:40.751Z,2.10
2022-09-29T07:33:44.210Z,3.12
2022-09-29T07:36:47.038Z,4.25
2022-09-29T07:39:49.503Z,2.50
2022-09-29T07:42:52.345Z,1.62
2022-09-29T07:45:54.800Z,4.83
2022-09-29T07:48:57.623Z,1.60
2022-09-29T07:52:00.175Z,1.40
2022-09-29T07:55:03.871Z,2.55
2022-09-29T07:58:07.625Z,1.60
2022-09-29T08:01:12.902Z,1.40
2022-09-29T08:04:15.868Z,1.30
2022-09-29T08:07:18.393Z,2.47
2022-09-29T08:10:21.422Z,2.25
2022-09-29T08:13:23.858Z,3.12
2022-09-29T08:16:27.047Z,1.90
2022-09-29T08:19:29.759Z,2.95
2022-09-29T08:22:32.521Z,1.65
2022-09-29T08:25:36.314Z,1.30
2022-09-29T08:28:40.030Z,1.67
2022-09-29T08:31:43.828Z,2.87
2022-09-29T08:34:47.086Z,1.92
2022-09-29T08:37:49.531Z,2.58
2022-09-29T08:40:53.164Z,2.10
2022-09-29T08:44:05.590Z,1.50
2022-09-29T08:47:11.073Z,2.15
2022-09-29T08:50:32.041Z,2.83
2022-09-29T08:53:39.132Z,1.35
2022-09-29T08:56:41.525Z,2.00
2022-09-29T08:59:55.965Z,2.00
2022-09-29T09:03:09.558Z,2.17
2022-09-29T09:06:18.023Z,2.50
2022-09-29T09:09:47.904Z,4.87
2022-09-29T09:13:18.121Z,2.62
2022-09-29T09:16:40.575Z,2.90
2022-09-29T09:19:55.369Z,2.85
2022-09-29T09:23:21.377Z,1.73
2022-09-29T09:26:40.418Z,9.48
2022-09-29T09:29:44.367Z,3.08
2022-09-29T09:32:57.549Z,3.67
2022-09-29T09:36:10.183Z,3.30
2022-09-29T09:39:20.650Z,3.17
2022-09-29T09:42:32.340Z,8.00
2022-09-29T09:45:43.615Z,3.45
2022-09-29T09:49:17.394Z,2.27
2022-09-29T09:52:24.550Z,2.62
2022-09-29T09:55:27.626Z,3.62
2022-09-29T09:58:36.536Z,4.03
2022-09-29T10:01:39.651Z,2.55
2022-09-29T10:04:42.456Z,5.00
2022-09-29T10:07:45.317Z,2.15
2022-09-29T10:10:58.091Z,2.83
2022-09-29T10:14:26.206Z,3.15
2022-09-29T10:17:35.500Z,2.72
2022-09-29T10:20:39.104Z,2.87
2022-09-29T10:23:50.994Z,3.37
2022-09-29T10:26:55.728Z,3.10
2022-09-29T10:29:59.622Z,3.70
2022-09-29T10:33:10.418Z,2.97
2022-09-29T10:36:14.373Z,2.53
2022-09-29T10:39:40.167Z,2.87
2022-09-29T10:42:46.248Z,2.87
2022-09-29T10:45:49.345Z,3.37
2022-09-29T10:49:17.475Z,3.37
2022-09-29T10:52:24.516Z,2.37
2022-09-29T10:55:30.663Z,2.15
2022-09-29T10:58:53.294Z,2.62
2022-09-29T11:02:01.701Z,6.25
2022-09-29T11:05:20.447Z,2.80
2022-09-29T11:08:27.607Z,1.90
2022-09-29T11:11:35.398Z,3.55
2022-09-29T11:14:37.999Z,2.83
2022-09-29T11:17:49.670Z,2.42
2022-09-29T11:21:27.675Z,2.55
2022-09-29T11:24:56.677Z,4.20
2022-09-29T11:28:41.185Z,2.40
2022-09-29T11:31:54.218Z,2.72
2022-09-29T11:35:13.319Z,2.92
2022-09-29T11:38:44.253Z,2.00
2022-09-29T11:41:50.072Z,2.47
2022-09-29T11:44:59.508Z,3.83
2022-09-29T11:48:24.927Z,2.10
2022-09-29T11:51:41.065Z,3.58
2022-09-29T11:55:02.481Z,1.98
2022-09-29T11:58:21.031Z,3.77
2022-09-29T12:01:30.846Z,1.80
2022-09-29T12:04:42.583Z,1.95
2022-09-29T12:08:06.920Z,2.55
2022-09-29T12:11:51.047Z,1.65
2022-09-29T12:15:18.404Z,2.63
2022-09-29T12:18:30.018Z,1.80
2022-09-29T12:21:35.584Z,1.70
2022-09-29T12:24:46.644Z,2.20
2022-09-29T12:27:49.940Z,2.80
2022-09-29T12:31:02.091Z,1.80
2022-09-29T12:34:14.641Z,2.20
2022-09-29T12:37:41.171Z,2.72
2022-09-29T12:40:48.985Z,5.20
2022-09-29T12:43:59.481Z,2.62
2022-09-29T12:47:12.790Z,3.17
2022-09-29T12:50:20.300Z,2.12
2022-09-29T12:53:32.293Z,2.85
2022-09-29T12:56:53.033Z,3.42
2022-09-29T13:00:12.977Z,1.95
2022-09-29T13:03:32.173Z,2.67
2022-09-29T13:06:59.330Z,2.97
2022-09-29T13:10:13.889Z,2.47
2022-09-29T13:13:28.564Z,2.92
2022-09-29T13:16:48.673Z,2.20
2022-09-29T13:20:07.090Z,1.77
2022-09-29T13:23:31.772Z,2.50
2022-09-29T13:27:09.390Z,1.90
2022-09-29T13:30:12.974Z,3.20
2022-09-29T13:33:20.108Z,2.40
2022-09-29T13:36:25.353Z,2.50
2022-09-29T13:39:28.278Z,2.45
2022-09-29T13:42:37.227Z,3.67
2022-09-29T13:45:41.983Z,3.17
2022-09-29T13:48:51.532Z,4.03
2022-09-29T13:51:56.888Z,4.27
2022-09-29T13:55:37.969Z,1.92
2022-09-29T13:58:43.579Z,2.80
2022-09-29T14:01:46.848Z,2.60
2022-09-29T14:04:49.602Z,2.15
2022-09-29T14:07:54.900Z,1.80
2022-09-29T14:11:27.667Z,3.80
2022-09-29T14:14:33.575Z,2.92
2022-09-29T14:17:39.683Z,34.10
2022-09-29T14:21:00.585Z,5.35
2022-09-29T14:24:03.545Z,4.63
2022-09-29T14:27:15.272Z,2.45
2022-09-29T14:30:21.286Z,2.05
2022-09-29T14:33:41.681Z,2.28
2022-09-29T14:36:47.149Z,2.20
2022-09-29T14:40:09.305Z,2.33
2022-09-29T14:43:17.389Z,4.32
2022-09-29T14:47:09.207Z,3.20
2022-09-29T14:50:43.240Z,5.75
2022-09-29T14:54:03.178Z,3.92
2022-09-29T14:57:22.451Z,2.53
2022-09-29T15:00:35.476Z,2.50
2022-09-29T15:03:47.217Z,3.90
2022-09-29T15:06:51.420Z,4.37
2022-09-29T15:09:57.071Z,3.03
2022-09-29T15:13:31.816Z,3.10
2022-09-29T15:17:14.855Z,4.62
2022-09-29T15:20:34.679Z,9.23
2022-09-29T15:23:47.146Z,5.25
2022-09-29T15:26:49.617Z,6.15
2022-09-29T15:29:55.483Z,5.83
2022-09-29T15:36:26.555Z,3.03
2022-09-29T15:39:32.079Z,3.20
2022-09-29T15:42:37.603Z,3.25
2022-09-29T15:45:40.089Z,3.90
2022-09-29T15:49:04.584Z,3.90
2022-09-29T15:52:12.858Z,2.58
2022-09-29T15:55:18.217Z,3.67
2022-09-29T15:58:26.697Z,2.50
2022-09-29T16:01:29.543Z,3.27
2022-09-29T16:04:32.915Z,6.55
2022-09-29T16:07:38.595Z,15.52
2022-09-29T16:11:02.740Z,27.62
2022-09-29T16:14:10.948Z,22.87
2022-09-29T16:17:13.779Z,23.27
2022-09-29T16:20:21.588Z,18.90
2022-09-29T16:23:34.469Z,13.20
2022-09-29T16:26:39.431Z,6.57
2022-09-29T16:29:42.273Z,7.47
2022-09-29T16:32:44.809Z,6.67
2022-09-29T16:35:53.247Z,7.20
2022-09-29T16:38:55.796Z,7.70
2022-09-29T16:42:00.364Z,6.25
2022-09-29T16:45:02.949Z,10.23
2022-09-29T16:48:08.899Z,10.30
2022-09-29T16:51:40.632Z,9.13
2022-09-29T16:54:45.336Z,12.68
2022-09-29T16:57:55.534Z,10.95
2022-09-29T17:00:58.321Z,13.70
2022-09-29T17:04:00.849Z,19.40
2022-09-29T17:07:03.633Z,38.13
2022-09-29T17:10:07.513Z,42.35
2022-09-29T17:13:13.987Z,23.45
2022-09-29T17:16:21.767Z,52.97
2022-09-29T17:19:24.748Z,37.03
2022-09-29T17:22:34.764Z,34.80
2022-09-29T17:25:43.175Z,30.33
2022-09-29T17:28:45.652Z,18.50
2022-09-29T17:31:48.411Z,12.82
2022-09-29T17:34:50.940Z,14.87
2022-09-29T17:37:56.460Z,11.68
2022-09-29T17:41:04.064Z,14.32
2022-09-29T17:44:09.922Z,7.22
2022-09-29T17:47:27.666Z,8.75
2022-09-29T17:50:36.773Z,9.73
2022-09-29T17:53:39.355Z,12.98
2022-09-29T17:56:42.769Z,16.10
2022-09-29T17:59:45.242Z,20.58
2022-09-29T18:02:50.419Z,23.95
2022-09-29T18:05:56.658Z,33.33
2022-09-29T18:08:59.864Z,36.50
2022-09-29T18:12:02.609Z,33.55
2022-09-29T18:15:05.568Z,29.40
2022-09-29T18:18:08.339Z,6.95
2022-09-29T18:21:11.563Z,4.20
2022-09-29T18:24:15.624Z,4.30
2022-09-29T18:27:18.171Z,3.95
2022-09-29T18:30:42.314Z,10.93
2022-09-29T18:33:44.791Z,15.68
2022-09-29T18:36:47.479Z,19.20
2022-09-29T18:39:49.953Z,16.08
2022-09-29T18:42:54.656Z,15.93
2022-09-29T18:45:58.214Z,16.62
2022-09-29T18:49:02.872Z,14.10
2022-09-29T18:52:05.336Z,16.23
2022-09-29T18:55:08.651Z,21.37
2022-09-29T18:58:16.116Z,19.85
2022-09-29T19:01:23.607Z,19.42
2022-09-29T19:04:26.164Z,23.17
2022-09-29T19:07:28.864Z,19.03
2022-09-29T19:10:33.505Z,26.05
2022-09-29T19:13:38.751Z,25.60
2022-09-29T19:16:41.249Z,28.10
2022-09-29T19:19:44.638Z,26.20
2022-09-29T19:22:47.116Z,27.77
2022-09-29T19:25:51.748Z,14.50
2022-09-29T19:28:54.266Z,6.45
2022-09-29T19:31:57.026Z,7.05
2022-09-29T19:34:59.887Z,10.95
2022-09-29T19:38:03.777Z,10.77
2022-09-29T19:41:19.735Z,18.83
2022-09-29T19:44:25.205Z,25.70
2022-09-29T19:47:27.786Z,89.13
2022-09-29T19:50:49.260Z,64.85
2022-09-29T19:54:10.733Z,58.27
2022-09-29T19:57:16.190Z,62.92
2022-09-29T20:00:20.546Z,55.88
2022-09-29T20:03:23.359Z,37.35
2022-09-29T20:06:25.791Z,19.95
2022-09-29T20:09:28.875Z,9.90
2022-09-29T20:12:31.632Z,23.58
2022-09-29T20:15:34.481Z,18.87
2022-09-29T20:18:37.516Z,19.77
2022-09-29T20:21:43.030Z,17.65
2022-09-29T20:24:45.938Z,17.80
2022-09-29T20:27:51.841Z,21.87
2022-09-29T20:30:58.500Z,21.05
2022-09-29T20:34:01.276Z,22.33
2022-09-29T20:37:03.770Z,23.55
2022-09-29T20:40:08.028Z,27.47
2022-09-29T20:43:14.344Z,28.58
2022-09-29T20:46:17.593Z,23.30
2022-09-29T20:49:20.451Z,27.48
2022-09-29T20:52:24.060Z,18.20
2022-09-29T20:55:26.552Z,15.47
2022-09-29T20:58:31.686Z,15.55
2022-09-29T21:01:34.215Z,15.25
2022-09-29T21:04:36.961Z,12.52
2022-09-29T21:07:40.269Z,13.05
2022-09-29T21:10:42.952Z,14.23
2022-09-29T21:13:49.422Z,13.82
2022-09-29T21:16:53.238Z,10.70
2022-09-29T21:19:56.000Z,12.48
2022-09-29T21:22:58.736Z,12.90
2022-09-29T21:26:15.860Z,13.77
2022-09-29T21:29:19.447Z,19.00
2022-09-29T21:32:21.986Z,18.65
2022-09-29T21:35:24.727Z,20.15
2022-09-29T21:38:30.584Z,20.98
2022-09-29T21:41:35.840Z,19.43
2022-09-29T21:44:38.245Z,20.50
2022-09-29T21:47:59.476Z,18.42
2022-09-29T21:51:03.750Z,18.85
2022-09-29T21:54:08.201Z,16.65
2022-09-29T21:57:10.646Z,14.97
2022-09-29T22:00:13.358Z,14.15
2022-09-29T22:03:16.156Z,17.65
2022-09-29T22:06:21.027Z,18.25
2022-09-29T22:09:23.978Z,21.37
2022-09-29T22:12:26.451Z,15.53
2022-09-29T22:15:29.148Z,17.50
2022-09-29T22:18:41.211Z,15.18
2022-09-29T22:21:44.708Z,15.65
2022-09-29T22:24:47.134Z,13.93
2022-09-29T22:27:50.436Z,12.30
2022-09-29T22:30:54.106Z,12.82
2022-09-29T22:33:59.925Z,11.40
2022-09-29T22:37:02.415Z,8.90
2022-09-29T22:40:05.809Z,9.38
2022-09-29T22:43:08.908Z,10.77
2022-09-29T22:46:12.323Z,9.18
2022-09-29T22:49:14.913Z,9.63
2022-09-29T22:52:17.858Z,9.02
2022-09-29T22:55:20.229Z,8.77
2022-09-29T22:58:26.045Z,10.07
2022-09-29T23:01:29.007Z,9.40
2022-09-29T23:04:32.021Z,9.00
2022-09-29T23:07:34.722Z,10.68
2022-09-29T23:10:37.503Z,8.45
2022-09-29T23:13:40.832Z,10.87
2022-09-29T23:16:43.743Z,10.48
2022-09-29T23:19:46.291Z,11.40
2022-09-29T23:22:48.975Z,11.45
2022-09-29T23:25:51.401Z,11.00
2022-09-29T23:28:55.332Z,11.53
2022-09-29T23:31:57.811Z,10.25
2022-09-29T23:35:00.643Z,12.43
2022-09-29T23:38:21.589Z,12.70
2022-09-29T23:41:27.179Z,14.13
2022-09-29T23:44:30.438Z,13.90
2022-09-29T23:47:34.035Z,13.13
2022-09-29T23:50:36.501Z,15.18
2022-09-29T23:53:39.244Z,13.57
2022-09-29T23:56:41.908Z,13.48
2022-09-29T23:59:44.883Z,13.20
